OEWD

Details ICAO OEWD (EWD)
Name WADI AL DAWASIR
Region Saudi Arabia
Timezone Asia/Riyadh (UTC+3.0)
Plans Departing 2
Arriving 7
Stats Elevation 2,062 ft / 628 m (AMSL)
Location 20.504275° 45.199554°
Runways 1
Magnetic Variation 2.666° E
Sunrise 2017-12-12 03:27:04 UTC / 2017-12-12 06:27:04 Local
Sunset 2017-12-12 14:21:32 UTC / 2017-12-12 17:21:32 Local
Advertisement - Login to hide

Runways

ID Width Length Bearing (true) Bearing (mag) Surface Threshold Offset Overrun Length
10 147 ft / 45 m 9,987 ft / 3,044 m 102.04° 99.37° Asphalt 0 ft / 0 m 395 ft / 120 m
28 147 ft / 45 m 9,987 ft / 3,044 m 282.05° 279.38° Asphalt 0 ft / 0 m 395 ft / 120 m

Approach Navaids

Runway Type Ident Frequency Range Bearing (true) Bearing (mag) Slope Elevation
10 Localiser IWDR 110.50 MHz 18 nm / 33 km 102.38° 99.71° - 2,062 ft / 628 m (AMSL)
10 Glidescope IWDR 110.50 MHz 10 nm / 19 km 102.05° 99.38° 3.00° 2,062 ft / 628 m (AMSL)

Map

Weather


0- 5 10 15 20 25 30 35+ Temperature / ° C

Clouds and Precipitation
Forecast for 2017-12-12 12:00 UTC. Updated an hour ago

Ground ~20,000 ft ~40,000 ft Winds

METAR

OEWD 121200Z 34004KT CAVOK 23/M01 Q1021 NOSIG

TAF

Not found

Frequencies

Unicom 122.80 MHz CTAF
Warning: Do not use this data for real-world aviation or navigation. No guarantee of current accuracy is given.